Stefan Field

About
Name: Stefan Field
Identifier:  OFK/KOFK
Serves:  Norfolk, Nebraska
Owner:  City of Norfolk
Public/Private:  Public
Local Time:  18. Sep 12:35 CDT
Description: Norfolk Regional Airport is four miles southwest of Norfolk, in Madison County, Nebraska. The airport is named for Karl Stefan, a local newspaper editor and radio announcer who served several terms in the United States Congress. Until March 2011 it was known as Karl Stefan Memorial Airport. The FAA's National Plan of Integrated Airport Systems for 2011–2015 categorized it as a general aviation facility.
Source: Wikipedia
Location
Runways
Identifier Length (m/ft) Surface
1/19 5,800/5,800 Asphalt
14/32 5,800/5,800 Asphalt
Statistics
Flights per Day:
0 flights
Distance: 149km (92mi)
Flights delayed:
0% (0 flights per day delayed)
Delay Average: 45 minutes
Current Weather
 25 C (Humidity: 44%)
  8kt (14km/h / 9mph) from 350°
  16km (10 mi.)
 
 METAR KOFK 181656Z AUTO 35008KT 10SM CLR 25/12 A2996 RMK AO2 SLP132 T02500122

Current Delays

Departures
N/A
Arrivals
N/A

Destinations

Top Destinations
Airport Flights
per week
Seats
per week
  Omaha (OMA) 0 - 0 0

Airlines & Planes

Top Airlines
Airline Flights
per Day
Seats
per Day
Freight Runners Express 0 -
Top Plane Types
Model Flights Seats
Beech C-99 Airliner 0.0/day - 0